createdAt,value
2018-02-15T00:00:58.352Z,11.60
2018-02-15T00:01:58.288Z,11.10
2018-02-15T00:02:58.229Z,11.40
2018-02-15T00:03:58.155Z,12.10
2018-02-15T00:04:58.096Z,10.60
2018-02-15T00:05:58.033Z,11.40
2018-02-15T00:06:57.952Z,11.20
2018-02-15T00:07:57.885Z,11.70
2018-02-15T00:08:57.822Z,11.90
2018-02-15T00:09:57.761Z,11.40
2018-02-15T00:10:57.693Z,11.30
2018-02-15T00:11:57.628Z,11.90
2018-02-15T00:12:57.566Z,11.80
2018-02-15T00:13:57.502Z,12.30
2018-02-15T00:14:57.438Z,11.90
2018-02-15T00:15:57.375Z,11.50
2018-02-15T00:16:57.309Z,11.80
2018-02-15T00:17:57.244Z,11.70
2018-02-15T00:18:57.181Z,11.30
2018-02-15T00:19:57.119Z,12.30
2018-02-15T00:20:57.053Z,11.80
2018-02-15T00:21:56.993Z,12.10
2018-02-15T00:22:56.926Z,11.90
2018-02-15T00:23:56.862Z,11.60
2018-02-15T00:24:56.798Z,11.30
2018-02-15T00:25:56.733Z,11.40
2018-02-15T00:26:56.672Z,12.10
2018-02-15T00:27:56.607Z,12.90
2018-02-15T00:28:56.540Z,11.60
2018-02-15T00:29:56.476Z,12.10
2018-02-15T00:30:56.440Z,12.00
2018-02-15T00:31:56.353Z,12.00
2018-02-15T00:32:56.283Z,12.10
2018-02-15T00:33:56.221Z,11.80
2018-02-15T00:34:56.157Z,11.20
2018-02-15T00:35:56.092Z,12.50
2018-02-15T00:36:56.028Z,11.90
2018-02-15T00:37:55.965Z,12.20
2018-02-15T00:38:55.901Z,13.00
2018-02-15T00:39:55.837Z,12.40
2018-02-15T00:40:55.772Z,13.00
2018-02-15T00:41:55.709Z,13.40
2018-02-15T00:42:55.647Z,12.80
2018-02-15T00:43:55.581Z,12.50
2018-02-15T00:44:55.518Z,13.60
2018-02-15T00:45:55.451Z,13.00
2018-02-15T00:46:55.392Z,13.00
2018-02-15T00:47:55.324Z,13.10
2018-02-15T00:48:55.259Z,14.00
2018-02-15T00:49:55.195Z,13.40
2018-02-15T00:50:55.127Z,13.50
2018-02-15T00:51:55.069Z,13.20
2018-02-15T00:52:55.005Z,12.70
2018-02-15T00:53:54.940Z,13.50
2018-02-15T00:54:54.877Z,13.10
2018-02-15T00:55:54.811Z,13.60
2018-02-15T00:56:54.750Z,13.30
2018-02-15T00:57:54.684Z,13.20
2018-02-15T00:58:54.619Z,13.40
2018-02-15T00:59:54.555Z,14.30
2018-02-15T01:00:54.493Z,13.40
2018-02-15T01:01:54.428Z,13.20
2018-02-15T01:02:54.363Z,13.60
2018-02-15T01:03:54.300Z,12.60
2018-02-15T01:04:54.233Z,13.40
2018-02-15T01:05:54.172Z,13.50
2018-02-15T01:06:54.108Z,13.50
2018-02-15T01:07:54.048Z,13.40
2018-02-15T01:08:53.981Z,13.10
2018-02-15T01:09:53.915Z,13.40
2018-02-15T01:10:53.856Z,13.30
2018-02-15T01:11:53.787Z,13.40
2018-02-15T01:12:53.721Z,13.10
2018-02-15T01:13:53.666Z,13.40
2018-02-15T01:14:53.592Z,14.50
2018-02-15T01:15:53.531Z,13.30
2018-02-15T01:16:53.469Z,13.60
2018-02-15T01:17:53.410Z,13.80
2018-02-15T01:18:53.339Z,13.70
2018-02-15T01:19:53.276Z,12.90
2018-02-15T01:20:53.210Z,12.80
2018-02-15T01:21:53.147Z,13.20
2018-02-15T01:22:53.083Z,13.60
2018-02-15T01:23:53.020Z,12.40
2018-02-15T01:24:52.967Z,13.10
2018-02-15T01:25:52.896Z,13.00
2018-02-15T01:26:52.866Z,12.90
2018-02-15T01:27:52.772Z,12.70
2018-02-15T01:28:52.696Z,12.40
2018-02-15T01:29:52.639Z,13.10
2018-02-15T01:30:52.579Z,12.60
2018-02-15T01:31:52.508Z,13.40
2018-02-15T01:32:52.442Z,13.00
2018-02-15T01:33:52.391Z,13.30
2018-02-15T01:34:52.317Z,13.20
2018-02-15T01:35:52.255Z,13.40
2018-02-15T01:36:52.190Z,13.60
2018-02-15T01:37:52.127Z,12.80
2018-02-15T01:38:52.059Z,13.10
2018-02-15T01:39:51.999Z,12.90
2018-02-15T01:40:51.936Z,13.30
2018-02-15T01:41:51.871Z,14.40
2018-02-15T01:42:51.808Z,13.30
2018-02-15T01:43:51.767Z,13.40
2018-02-15T01:44:51.683Z,14.50
2018-02-15T01:45:51.620Z,13.90
2018-02-15T01:46:51.555Z,13.50
2018-02-15T01:47:51.492Z,15.00
2018-02-15T01:48:51.429Z,14.50
2018-02-15T01:49:51.371Z,13.80
2018-02-15T01:50:51.298Z,13.80
2018-02-15T01:51:51.232Z,14.40
2018-02-15T01:52:51.168Z,14.20
2018-02-15T01:53:51.104Z,13.70
2018-02-15T01:54:51.042Z,14.20
2018-02-15T01:55:50.978Z,14.60
2018-02-15T01:56:50.912Z,14.10
2018-02-15T01:57:50.853Z,14.40
2018-02-15T01:58:50.786Z,14.60
2018-02-15T01:59:50.723Z,15.00
2018-02-15T02:00:50.657Z,16.10
2018-02-15T02:01:50.594Z,16.00
2018-02-15T02:02:50.532Z,15.70
2018-02-15T02:03:50.471Z,15.60
2018-02-15T02:04:50.406Z,16.10
2018-02-15T02:05:50.339Z,15.80
2018-02-15T02:06:50.276Z,16.00
2018-02-15T02:07:50.214Z,16.70
2018-02-15T02:08:50.148Z,15.60
2018-02-15T02:09:50.089Z,16.60
2018-02-15T02:10:50.022Z,16.40
2018-02-15T02:11:49.959Z,16.70
2018-02-15T02:12:49.893Z,16.50
2018-02-15T02:13:49.829Z,16.70
2018-02-15T02:14:49.766Z,16.30
2018-02-15T02:15:49.702Z,16.50
2018-02-15T02:16:49.637Z,16.40
2018-02-15T02:17:49.575Z,17.00
2018-02-15T02:18:49.509Z,16.40
2018-02-15T02:19:49.451Z,16.30
2018-02-15T02:20:49.384Z,16.60
2018-02-15T02:21:49.319Z,16.00
2018-02-15T02:22:49.259Z,16.10
2018-02-15T02:23:49.193Z,15.90
2018-02-15T02:24:49.129Z,15.70
2018-02-15T02:25:49.068Z,16.20
2018-02-15T02:26:49.003Z,15.80
2018-02-15T02:27:48.939Z,16.10
2018-02-15T02:28:48.874Z,15.30
2018-02-15T02:29:48.811Z,15.80
2018-02-15T02:30:48.750Z,15.90
2018-02-15T02:31:48.691Z,16.00
2018-02-15T02:32:48.620Z,15.90
2018-02-15T02:33:48.557Z,15.70
2018-02-15T02:34:48.493Z,14.80
2018-02-15T02:35:48.433Z,15.20
2018-02-15T02:36:48.364Z,15.50
2018-02-15T02:37:48.301Z,15.50
2018-02-15T02:38:48.239Z,15.70
2018-02-15T02:39:48.179Z,15.60
2018-02-15T02:40:48.112Z,16.40
2018-02-15T02:41:48.046Z,16.90
2018-02-15T02:42:47.982Z,16.70
2018-02-15T02:43:47.922Z,16.10
2018-02-15T02:44:47.856Z,15.80
2018-02-15T02:45:47.795Z,16.30
2018-02-15T02:46:47.730Z,15.80
2018-02-15T02:47:47.664Z,16.00
2018-02-15T02:48:47.600Z,15.40
2018-02-15T02:49:47.539Z,16.50
2018-02-15T02:50:47.472Z,15.20
2018-02-15T02:51:47.416Z,15.70
2018-02-15T02:52:47.345Z,15.60
2018-02-15T02:53:47.285Z,14.50
2018-02-15T02:54:47.219Z,15.00
2018-02-15T02:55:47.156Z,15.80
2018-02-15T02:56:47.092Z,15.50
2018-02-15T02:57:47.027Z,14.40
2018-02-15T02:58:46.965Z,15.60
2018-02-15T02:59:46.902Z,16.00
2018-02-15T03:00:46.836Z,16.50
2018-02-15T03:01:46.775Z,17.00
2018-02-15T03:02:46.716Z,15.80
2018-02-15T03:03:46.647Z,16.40
2018-02-15T03:04:46.581Z,16.70
2018-02-15T03:05:46.519Z,17.30
2018-02-15T03:06:46.455Z,17.00
2018-02-15T03:07:46.394Z,16.60
2018-02-15T03:08:46.327Z,17.00
2018-02-15T03:09:46.264Z,16.50
2018-02-15T03:10:46.204Z,16.70
2018-02-15T03:11:46.137Z,16.20
2018-02-15T03:12:46.072Z,17.20
2018-02-15T03:13:46.011Z,17.00
2018-02-15T03:14:45.945Z,17.70
2018-02-15T03:15:45.887Z,17.10
2018-02-15T03:16:45.821Z,16.90
2018-02-15T03:17:45.756Z,16.90
2018-02-15T03:18:45.691Z,16.80
2018-02-15T03:19:45.629Z,17.20
2018-02-15T03:20:45.563Z,17.30
2018-02-15T03:21:45.500Z,17.50
2018-02-15T03:22:45.439Z,16.90
2018-02-15T03:23:45.375Z,17.40
2018-02-15T03:24:45.313Z,16.90
2018-02-15T03:25:45.251Z,17.70
2018-02-15T03:26:45.186Z,17.60
2018-02-15T03:27:45.119Z,16.70
2018-02-15T03:28:45.055Z,17.30
2018-02-15T03:29:44.993Z,17.10
2018-02-15T03:30:44.928Z,16.80
2018-02-15T03:31:44.865Z,17.10
2018-02-15T03:32:44.805Z,16.50
2018-02-15T03:33:44.735Z,16.80
2018-02-15T03:34:44.674Z,17.10
2018-02-15T03:35:44.610Z,17.20
2018-02-15T03:36:44.547Z,17.30
2018-02-15T03:37:44.490Z,17.10
2018-02-15T03:38:44.418Z,17.60
2018-02-15T03:39:44.357Z,16.10
2018-02-15T03:40:44.292Z,16.70
2018-02-15T03:41:44.228Z,16.40
2018-02-15T03:42:44.165Z,15.70
2018-02-15T03:43:44.104Z,16.10
2018-02-15T03:44:44.039Z,16.40
2018-02-15T03:45:43.974Z,16.00
2018-02-15T03:46:43.911Z,16.10
2018-02-15T03:47:43.849Z,15.70
2018-02-15T03:48:43.785Z,15.20
2018-02-15T03:49:43.723Z,15.90
2018-02-15T03:50:43.659Z,16.00
2018-02-15T03:51:43.595Z,15.80
2018-02-15T03:52:43.531Z,15.20
2018-02-15T03:53:43.466Z,15.70
2018-02-15T03:54:43.403Z,16.30
2018-02-15T03:55:43.341Z,15.30
2018-02-15T03:56:43.276Z,16.10
2018-02-15T03:57:43.215Z,15.80
2018-02-15T03:58:43.152Z,16.00
2018-02-15T03:59:43.089Z,15.90
2018-02-15T04:00:43.023Z,16.00
2018-02-15T04:01:42.960Z,15.60
2018-02-15T04:02:42.896Z,16.00
2018-02-15T04:03:42.833Z,16.10
2018-02-15T04:04:42.769Z,15.70
2018-02-15T04:05:42.704Z,15.50
2018-02-15T04:06:42.643Z,16.00
2018-02-15T04:07:42.579Z,16.60
2018-02-15T04:08:42.516Z,16.10
2018-02-15T04:09:42.452Z,16.20
2018-02-15T04:10:42.389Z,17.30
2018-02-15T04:11:42.326Z,17.40
2018-02-15T04:12:42.261Z,16.40
2018-02-15T04:13:42.199Z,16.90
2018-02-15T04:14:42.136Z,17.40
2018-02-15T04:15:42.073Z,17.80
2018-02-15T04:16:42.009Z,17.50
2018-02-15T04:17:41.996Z,16.70
2018-02-15T04:18:41.883Z,17.10
2018-02-15T04:19:41.821Z,16.80
2018-02-15T04:20:41.754Z,16.70
2018-02-15T04:21:41.690Z,17.50
2018-02-15T04:22:41.628Z,17.70
2018-02-15T04:23:41.566Z,17.30
2018-02-15T04:24:41.500Z,17.10
2018-02-15T04:25:41.440Z,16.90
2018-02-15T04:26:41.380Z,17.10
2018-02-15T04:27:41.316Z,17.00
2018-02-15T04:28:41.248Z,17.40
2018-02-15T04:29:41.185Z,17.10
2018-02-15T04:30:41.124Z,18.10
2018-02-15T04:31:41.056Z,18.00
2018-02-15T04:32:40.997Z,17.40
2018-02-15T04:33:40.929Z,18.30
2018-02-15T04:34:40.869Z,18.20
2018-02-15T04:35:40.804Z,18.00
2018-02-15T04:36:40.750Z,18.00
2018-02-15T04:37:40.677Z,17.00
2018-02-15T04:38:40.614Z,18.00
2018-02-15T04:39:40.551Z,17.40
2018-02-15T04:40:40.487Z,17.50
2018-02-15T04:41:40.423Z,18.30
2018-02-15T04:42:40.360Z,17.70
2018-02-15T04:43:40.303Z,17.50
2018-02-15T04:44:40.234Z,17.20
2018-02-15T04:45:40.171Z,18.00
2018-02-15T04:46:40.108Z,17.00
2018-02-15T04:47:40.046Z,17.70
2018-02-15T04:48:39.982Z,16.00
2018-02-15T04:49:39.918Z,17.00
2018-02-15T04:50:39.854Z,17.20
2018-02-15T04:51:39.792Z,18.10
2018-02-15T04:52:39.731Z,18.30
2018-02-15T04:53:39.666Z,18.20
2018-02-15T04:54:39.603Z,16.50
2018-02-15T04:55:39.545Z,17.80
2018-02-15T04:56:39.475Z,16.40
2018-02-15T04:57:39.411Z,18.20
2018-02-15T04:58:39.349Z,17.60
2018-02-15T04:59:39.287Z,16.20
2018-02-15T05:00:39.221Z,16.50
2018-02-15T05:01:39.159Z,16.80
2018-02-15T05:02:39.096Z,17.00
2018-02-15T05:03:39.034Z,16.90
2018-02-15T05:04:38.971Z,16.00
2018-02-15T05:05:38.905Z,16.20
2018-02-15T05:06:38.844Z,17.20
2018-02-15T05:07:38.781Z,17.80
2018-02-15T05:08:38.716Z,16.90
2018-02-15T05:09:38.654Z,17.20
2018-02-15T05:10:38.591Z,16.70
2018-02-15T05:11:38.530Z,17.40
2018-02-15T05:12:38.464Z,16.50
2018-02-15T05:13:38.401Z,16.20
2018-02-15T05:14:38.339Z,16.80
2018-02-15T05:15:38.279Z,16.20
2018-02-15T05:16:38.216Z,15.70
2018-02-15T05:17:38.153Z,17.00
2018-02-15T05:18:38.093Z,16.20
2018-02-15T05:19:38.028Z,16.20
2018-02-15T05:20:37.962Z,15.20
2018-02-15T05:21:37.900Z,15.20
2018-02-15T05:22:37.836Z,13.60
2018-02-15T05:23:37.773Z,13.90
2018-02-15T05:24:37.708Z,14.30
2018-02-15T05:25:37.647Z,13.90
2018-02-15T05:26:37.586Z,13.40
2018-02-15T05:27:37.523Z,13.60
2018-02-15T05:28:37.458Z,13.40
2018-02-15T05:29:37.395Z,13.30
2018-02-15T05:30:37.333Z,13.70
2018-02-15T05:31:37.271Z,13.50
2018-02-15T05:32:37.205Z,14.20
2018-02-15T05:33:37.143Z,13.50
2018-02-15T05:34:37.086Z,14.40
2018-02-15T05:35:37.047Z,14.70
2018-02-15T05:36:36.953Z,14.90
2018-02-15T05:37:36.892Z,16.10
2018-02-15T05:38:36.828Z,16.50
2018-02-15T05:39:36.766Z,16.90
2018-02-15T05:40:36.701Z,16.00
2018-02-15T05:41:36.641Z,17.30
2018-02-15T05:42:36.577Z,16.60
2018-02-15T05:43:36.514Z,15.90
2018-02-15T05:44:36.455Z,16.70
2018-02-15T05:45:36.387Z,16.80
2018-02-15T05:46:36.325Z,16.60
2018-02-15T05:47:36.262Z,16.30
2018-02-15T05:48:36.198Z,15.30
2018-02-15T05:49:36.136Z,15.80
2018-02-15T05:50:36.075Z,15.80
2018-02-15T05:51:36.013Z,15.40
2018-02-15T05:52:35.947Z,16.10
2018-02-15T05:53:35.885Z,16.50
2018-02-15T05:54:35.822Z,16.70
2018-02-15T05:55:35.762Z,16.70
2018-02-15T05:56:35.699Z,17.20
2018-02-15T05:57:35.632Z,17.60
2018-02-15T05:58:35.573Z,16.80
2018-02-15T05:59:35.506Z,16.00
2018-02-15T06:00:35.443Z,17.60
2018-02-15T06:01:35.377Z,17.60
2018-02-15T06:02:35.317Z,18.40
2018-02-15T06:03:35.257Z,18.00
2018-02-15T06:04:35.192Z,18.20
2018-02-15T06:05:35.133Z,19.00
2018-02-15T06:06:35.066Z,17.10
2018-02-15T06:07:35.006Z,18.20
2018-02-15T06:08:34.941Z,17.70
2018-02-15T06:09:34.879Z,17.40
2018-02-15T06:10:34.814Z,18.60
2018-02-15T06:11:34.753Z,18.60
2018-02-15T06:12:34.690Z,17.90
2018-02-15T06:13:34.625Z,17.80
2018-02-15T06:14:34.562Z,18.40
2018-02-15T06:15:34.501Z,18.30
2018-02-15T06:16:34.462Z,18.30
2018-02-15T06:17:34.375Z,18.30
2018-02-15T06:18:34.313Z,18.20
2018-02-15T06:19:34.249Z,18.50
2018-02-15T06:20:34.188Z,17.40
2018-02-15T06:21:34.127Z,17.10
2018-02-15T06:22:34.060Z,17.60
2018-02-15T06:23:33.997Z,18.00
2018-02-15T06:24:33.936Z,18.00
2018-02-15T06:25:33.870Z,17.50
2018-02-15T06:26:33.811Z,17.10
2018-02-15T06:27:33.813Z,16.50
2018-02-15T06:28:33.683Z,17.10
2018-02-15T06:29:33.620Z,16.60
2018-02-15T06:30:33.556Z,17.10
2018-02-15T06:31:33.493Z,17.90
2018-02-15T06:32:33.429Z,18.10
2018-02-15T06:33:33.369Z,17.90
2018-02-15T06:34:33.314Z,18.20
2018-02-15T06:35:33.242Z,18.70
2018-02-15T06:36:33.179Z,18.20
2018-02-15T06:37:33.115Z,18.80
2018-02-15T06:38:33.054Z,18.60
2018-02-15T06:39:32.991Z,18.10
2018-02-15T06:40:32.929Z,17.90
2018-02-15T06:41:32.864Z,18.70
2018-02-15T06:42:32.804Z,18.50
2018-02-15T06:43:32.744Z,18.20
2018-02-15T06:44:32.681Z,16.90
2018-02-15T06:45:32.616Z,17.10
2018-02-15T06:46:32.551Z,17.00
2018-02-15T06:47:32.489Z,17.50
2018-02-15T06:48:32.426Z,17.50
2018-02-15T06:49:32.363Z,17.80
2018-02-15T06:50:32.307Z,17.70
2018-02-15T06:51:32.237Z,17.50
2018-02-15T06:52:32.174Z,18.70
2018-02-15T06:53:32.112Z,17.80
2018-02-15T06:54:32.050Z,18.90
2018-02-15T06:55:31.989Z,19.40
2018-02-15T06:56:31.925Z,19.00
2018-02-15T06:57:31.860Z,18.50
2018-02-15T06:58:31.795Z,18.70
2018-02-15T06:59:31.740Z,18.10
2018-02-15T07:00:31.676Z,17.20
2018-02-15T07:01:31.614Z,17.70
2018-02-15T07:02:31.551Z,17.90
2018-02-15T07:03:31.487Z,17.70
2018-02-15T07:04:31.426Z,17.40
2018-02-15T07:05:31.362Z,18.00
2018-02-15T07:06:31.298Z,17.60
2018-02-15T07:07:31.278Z,17.80
2018-02-15T07:08:31.171Z,18.50
2018-02-15T07:09:31.113Z,19.10
2018-02-15T07:10:31.049Z,18.30
2018-02-15T07:11:30.985Z,17.90
2018-02-15T07:12:30.921Z,18.70
2018-02-15T07:13:30.863Z,18.30
2018-02-15T07:14:30.796Z,17.90
2018-02-15T07:15:30.735Z,17.90
2018-02-15T07:16:30.672Z,18.70
2018-02-15T07:17:30.609Z,18.50
2018-02-15T07:18:30.548Z,19.30
2018-02-15T07:19:30.484Z,19.80
2018-02-15T07:20:30.420Z,19.80
2018-02-15T07:21:30.358Z,19.20
2018-02-15T07:22:30.296Z,18.90
2018-02-15T07:23:30.234Z,18.60
2018-02-15T07:24:30.170Z,19.80
2018-02-15T07:25:30.107Z,19.40
2018-02-15T07:26:30.050Z,20.10
2018-02-15T07:27:29.981Z,20.50
2018-02-15T07:28:29.920Z,19.70
2018-02-15T07:29:29.856Z,20.10
2018-02-15T07:30:29.794Z,20.70
2018-02-15T07:31:29.738Z,21.20
2018-02-15T07:32:29.668Z,20.60
2018-02-15T07:33:29.612Z,20.50
2018-02-15T07:34:29.550Z,19.60
2018-02-15T07:35:29.479Z,20.10
2018-02-15T07:36:29.416Z,20.80
2018-02-15T07:37:29.356Z,21.50
2018-02-15T07:38:29.291Z,20.50
2018-02-15T07:39:29.230Z,20.90
2018-02-15T07:40:29.166Z,19.30
2018-02-15T07:41:29.104Z,19.10
2018-02-15T07:42:29.040Z,16.90
2018-02-15T07:43:28.977Z,14.40
2018-02-15T07:44:28.915Z,14.40
2018-02-15T07:45:28.854Z,13.30
2018-02-15T07:46:28.788Z,12.80
2018-02-15T07:47:28.730Z,12.10
2018-02-15T07:48:28.663Z,12.50
2018-02-15T07:49:28.622Z,11.30
2018-02-15T07:50:28.537Z,11.40
2018-02-15T07:51:28.474Z,10.80
2018-02-15T07:52:28.413Z,9.20
2018-02-15T07:53:28.349Z,9.30
2018-02-15T07:54:28.288Z,8.80
2018-02-15T07:55:28.227Z,9.00
2018-02-15T07:56:28.161Z,9.00
2018-02-15T07:57:28.098Z,9.20
2018-02-15T07:58:28.034Z,8.70
2018-02-15T07:59:27.977Z,8.60
2018-02-15T08:00:27.910Z,8.00
2018-02-15T08:01:27.849Z,8.40
2018-02-15T08:02:27.784Z,8.60
2018-02-15T08:03:27.724Z,9.00
2018-02-15T08:04:27.660Z,8.30
2018-02-15T08:05:27.598Z,8.20
2018-02-15T08:06:27.540Z,7.60
2018-02-15T08:07:27.472Z,8.70
2018-02-15T08:08:27.409Z,8.10
2018-02-15T08:09:27.345Z,7.40
2018-02-15T08:10:27.284Z,6.90
2018-02-15T08:11:27.223Z,7.00
2018-02-15T08:12:27.160Z,7.50
2018-02-15T08:13:27.098Z,7.80
2018-02-15T08:14:27.037Z,8.50
2018-02-15T08:15:26.971Z,8.10
2018-02-15T08:16:26.914Z,8.20
2018-02-15T08:17:26.848Z,8.30
2018-02-15T08:18:26.789Z,8.60
2018-02-15T08:19:26.724Z,8.60
2018-02-15T08:20:26.662Z,9.10
2018-02-15T08:21:26.597Z,8.70
2018-02-15T08:22:26.535Z,8.80
2018-02-15T08:23:26.473Z,8.90
2018-02-15T08:24:26.409Z,9.50
2018-02-15T08:25:26.362Z,9.20
2018-02-15T08:26:26.289Z,8.90
2018-02-15T08:27:26.226Z,10.10
2018-02-15T08:28:26.162Z,9.10
2018-02-15T08:29:26.099Z,9.00
2018-02-15T08:30:26.036Z,9.40
2018-02-15T08:31:25.973Z,9.60
2018-02-15T08:32:25.911Z,10.10
2018-02-15T08:33:25.848Z,10.20
2018-02-15T08:34:25.788Z,9.70
2018-02-15T08:35:25.723Z,9.40
2018-02-15T08:36:25.666Z,9.30
2018-02-15T08:37:25.603Z,9.30
2018-02-15T08:38:25.539Z,9.20
2018-02-15T08:39:25.475Z,9.60
2018-02-15T08:40:25.414Z,9.30
2018-02-15T08:41:25.351Z,9.20
2018-02-15T08:42:25.291Z,9.40
2018-02-15T08:43:25.233Z,9.00
2018-02-15T08:44:25.164Z,9.00
2018-02-15T08:45:25.107Z,8.80
2018-02-15T08:46:25.039Z,8.80
2018-02-15T08:47:24.983Z,9.20
2018-02-15T08:48:24.914Z,9.50
2018-02-15T08:49:24.858Z,8.70
2018-02-15T08:50:24.792Z,8.90
2018-02-15T08:51:24.730Z,8.40
2018-02-15T08:52:24.671Z,9.40
2018-02-15T08:53:24.606Z,9.00
2018-02-15T08:54:24.543Z,9.00
2018-02-15T08:55:24.482Z,9.90
2018-02-15T08:56:24.421Z,9.60
2018-02-15T08:57:24.357Z,9.70
2018-02-15T08:58:24.296Z,9.70
2018-02-15T08:59:24.233Z,11.00
2018-02-15T09:00:24.172Z,10.10
2018-02-15T09:01:24.112Z,9.50
2018-02-15T09:02:24.047Z,10.60
2018-02-15T09:03:23.986Z,10.20
2018-02-15T09:04:23.922Z,11.10
2018-02-15T09:05:23.863Z,10.20
2018-02-15T09:06:23.800Z,10.10
2018-02-15T09:07:23.738Z,10.40
2018-02-15T09:08:23.676Z,10.60
2018-02-15T09:09:23.615Z,10.30
2018-02-15T09:10:23.555Z,10.20
2018-02-15T09:11:23.492Z,10.10
2018-02-15T09:12:23.428Z,10.60
2018-02-15T09:13:23.369Z,10.60
2018-02-15T09:14:23.307Z,10.20
2018-02-15T09:15:23.245Z,10.60
2018-02-15T09:16:23.181Z,10.60
2018-02-15T09:17:23.121Z,10.40
2018-02-15T09:18:23.057Z,10.70
2018-02-15T09:19:23.000Z,11.00
2018-02-15T09:20:22.936Z,10.70
2018-02-15T09:21:22.873Z,11.20
2018-02-15T09:22:22.829Z,11.00
2018-02-15T09:23:22.751Z,11.20
2018-02-15T09:24:22.688Z,12.40
2018-02-15T09:25:22.627Z,11.10
2018-02-15T09:26:22.560Z,11.00
2018-02-15T09:27:22.501Z,9.90
2018-02-15T09:28:22.440Z,10.00
2018-02-15T09:29:22.376Z,10.20
2018-02-15T09:30:22.315Z,10.50
2018-02-15T09:31:22.255Z,9.20
2018-02-15T09:32:22.192Z,9.40
2018-02-15T09:33:22.130Z,10.60
2018-02-15T09:34:22.073Z,9.10
2018-02-15T09:35:22.007Z,9.40
2018-02-15T09:36:21.946Z,9.30
2018-02-15T09:37:21.883Z,8.20
2018-02-15T09:38:21.820Z,8.50
2018-02-15T09:39:21.760Z,7.40
2018-02-15T09:40:21.700Z,8.00
2018-02-15T09:41:21.647Z,8.00
2018-02-15T09:42:21.582Z,8.60
2018-02-15T09:43:21.513Z,9.10
2018-02-15T09:44:21.449Z,9.80
2018-02-15T09:45:21.388Z,8.50
2018-02-15T09:46:21.329Z,8.20
2018-02-15T09:47:21.264Z,7.50
2018-02-15T09:48:21.205Z,7.60
2018-02-15T09:49:21.141Z,8.20
2018-02-15T09:50:21.081Z,8.10
2018-02-15T09:51:21.018Z,7.90
2018-02-15T09:52:20.956Z,7.20
2018-02-15T09:53:20.896Z,7.50
2018-02-15T09:54:20.834Z,7.10
2018-02-15T09:55:20.772Z,6.80
2018-02-15T09:56:20.709Z,6.70
2018-02-15T09:57:20.645Z,7.00
2018-02-15T09:58:20.584Z,6.10
2018-02-15T09:59:20.522Z,7.00
2018-02-15T10:00:20.462Z,5.70
2018-02-15T10:01:20.400Z,6.10
2018-02-15T10:02:20.338Z,7.20
2018-02-15T10:03:20.278Z,6.50
2018-02-15T10:04:20.212Z,5.70
2018-02-15T10:05:20.155Z,5.90
2018-02-15T10:06:20.090Z,5.90
2018-02-15T10:07:20.036Z,5.40
2018-02-15T10:08:19.994Z,5.40
2018-02-15T10:09:19.903Z,5.20
2018-02-15T10:10:19.841Z,5.00
2018-02-15T10:11:19.783Z,5.10
2018-02-15T10:12:19.720Z,5.40
2018-02-15T10:13:19.658Z,5.00
2018-02-15T10:14:19.631Z,4.50
2018-02-15T10:15:19.537Z,4.90
2018-02-15T10:16:19.474Z,4.80
2018-02-15T10:17:19.412Z,4.90
2018-02-15T10:18:19.351Z,4.90
2018-02-15T10:19:19.289Z,4.90
2018-02-15T10:20:19.230Z,5.20
2018-02-15T10:21:19.166Z,4.80
2018-02-15T10:22:19.104Z,4.30
2018-02-15T10:23:19.040Z,5.50
2018-02-15T10:24:18.980Z,3.90
2018-02-15T10:25:18.916Z,4.10
2018-02-15T10:26:18.857Z,4.00
2018-02-15T10:27:18.795Z,3.90
2018-02-15T10:28:18.731Z,4.60
2018-02-15T10:29:18.671Z,4.30
2018-02-15T10:30:18.613Z,4.50
2018-02-15T10:31:18.549Z,4.70
2018-02-15T10:32:18.485Z,4.80
2018-02-15T10:33:18.424Z,4.50
2018-02-15T10:34:18.363Z,3.80
2018-02-15T10:35:18.300Z,4.40
2018-02-15T10:36:18.241Z,4.60
2018-02-15T10:37:18.177Z,4.80
2018-02-15T10:38:18.115Z,4.40
2018-02-15T10:39:18.059Z,4.80
2018-02-15T10:40:17.994Z,5.20
2018-02-15T10:41:17.937Z,5.00
2018-02-15T10:42:17.872Z,5.40
2018-02-15T10:43:17.809Z,5.30
2018-02-15T10:44:17.747Z,5.90
2018-02-15T10:45:17.720Z,5.80
2018-02-15T10:46:17.623Z,5.90
2018-02-15T10:47:17.563Z,5.90
2018-02-15T10:48:17.501Z,5.90
2018-02-15T10:49:17.439Z,6.30
2018-02-15T10:50:17.380Z,6.10
2018-02-15T10:51:17.316Z,6.30
2018-02-15T10:52:17.260Z,8.00
2018-02-15T10:53:17.193Z,6.50
2018-02-15T10:54:17.132Z,6.00
2018-02-15T10:55:17.076Z,6.20
2018-02-15T10:56:17.009Z,6.40
2018-02-15T10:57:16.949Z,6.00
2018-02-15T10:58:16.920Z,5.80
2018-02-15T10:59:16.824Z,6.50
2018-02-15T11:00:16.767Z,6.00
2018-02-15T11:01:16.704Z,6.20
2018-02-15T11:02:16.642Z,6.70
2018-02-15T11:03:16.579Z,6.60
2018-02-15T11:04:16.517Z,6.90
2018-02-15T11:05:16.455Z,7.00
2018-02-15T11:06:16.396Z,6.70
2018-02-15T11:07:16.335Z,6.60
2018-02-15T11:08:16.291Z,7.20
2018-02-15T11:09:16.211Z,6.30
2018-02-15T11:10:16.153Z,6.40
2018-02-15T11:11:16.087Z,7.00
2018-02-15T11:12:16.027Z,7.20
2018-02-15T11:13:15.969Z,7.00
2018-02-15T11:14:15.905Z,7.20
2018-02-15T11:15:15.842Z,7.60
2018-02-15T11:16:15.790Z,7.40
2018-02-15T11:17:15.720Z,7.70
2018-02-15T11:18:15.659Z,7.40
2018-02-15T11:19:15.599Z,7.90
2018-02-15T11:20:15.537Z,7.70
2018-02-15T11:21:15.476Z,8.60
2018-02-15T11:22:15.415Z,8.20
2018-02-15T11:23:15.353Z,8.20
2018-02-15T11:24:15.289Z,8.30
2018-02-15T11:25:15.233Z,7.90
2018-02-15T11:26:15.168Z,8.60
2018-02-15T11:27:15.155Z,8.60
2018-02-15T11:28:15.048Z,8.40
2018-02-15T11:29:15.005Z,8.50
2018-02-15T11:30:14.922Z,7.70
2018-02-15T11:31:14.862Z,8.10
2018-02-15T11:32:14.801Z,8.20
2018-02-15T11:33:14.738Z,8.00
2018-02-15T11:34:14.676Z,8.00
2018-02-15T11:35:14.619Z,7.80
2018-02-15T11:36:14.554Z,8.00
2018-02-15T11:37:14.492Z,8.30
2018-02-15T11:38:14.433Z,8.40
2018-02-15T11:39:14.407Z,8.20
2018-02-15T11:40:14.311Z,8.20
2018-02-15T11:41:14.247Z,8.00
2018-02-15T11:42:14.187Z,8.30
2018-02-15T11:43:14.126Z,7.90
2018-02-15T11:44:14.063Z,8.60
2018-02-15T11:45:14.046Z,8.00
2018-02-15T11:46:13.943Z,8.40
2018-02-15T11:47:13.883Z,7.80
2018-02-15T11:48:13.818Z,8.40
2018-02-15T11:49:13.757Z,8.30
2018-02-15T11:50:13.693Z,8.90
2018-02-15T11:51:13.633Z,8.30
2018-02-15T11:52:13.571Z,8.00
2018-02-15T11:53:13.510Z,8.60
2018-02-15T11:54:13.447Z,8.50
2018-02-15T11:55:13.389Z,8.00
2018-02-15T11:56:13.325Z,8.80
2018-02-15T11:57:13.266Z,8.80
2018-02-15T11:58:13.203Z,8.90
2018-02-15T11:59:13.141Z,9.30
2018-02-15T12:00:13.080Z,8.60
2018-02-15T12:01:13.018Z,9.30
2018-02-15T12:02:12.955Z,9.60
2018-02-15T12:03:12.896Z,9.50
2018-02-15T12:04:12.834Z,8.80
2018-02-15T12:05:12.773Z,8.60
2018-02-15T12:06:12.710Z,9.20
2018-02-15T12:07:12.650Z,8.50
2018-02-15T12:08:12.586Z,8.10
2018-02-15T12:09:12.525Z,9.00
2018-02-15T12:10:12.465Z,9.20
2018-02-15T12:11:12.405Z,9.30
2018-02-15T12:12:12.342Z,9.30
2018-02-15T12:13:12.279Z,9.20
2018-02-15T12:14:12.219Z,9.40
2018-02-15T12:15:12.159Z,9.20
2018-02-15T12:16:12.096Z,9.50
2018-02-15T12:17:12.034Z,10.10
2018-02-15T12:18:11.972Z,9.50
2018-02-15T12:19:11.915Z,9.80
2018-02-15T12:20:11.850Z,9.50
2018-02-15T12:21:11.804Z,8.90
2018-02-15T12:22:11.727Z,8.80
2018-02-15T12:23:11.666Z,9.50
2018-02-15T12:24:11.604Z,9.50
2018-02-15T12:25:11.545Z,10.20
2018-02-15T12:26:11.482Z,9.80
2018-02-15T12:27:11.420Z,10.50
2018-02-15T12:28:11.359Z,10.20
2018-02-15T12:29:11.300Z,10.50
2018-02-15T12:30:11.236Z,11.20
2018-02-15T12:31:11.179Z,10.60
2018-02-15T12:32:11.112Z,10.50
2018-02-15T12:33:11.053Z,10.10
2018-02-15T12:34:10.990Z,10.10
2018-02-15T12:35:10.932Z,10.20
2018-02-15T12:36:10.867Z,9.40
2018-02-15T12:37:10.812Z,10.10
2018-02-15T12:38:10.750Z,10.00
2018-02-15T12:39:10.684Z,10.20
2018-02-15T12:40:10.625Z,9.50
2018-02-15T12:41:10.563Z,9.70
2018-02-15T12:42:10.501Z,10.60
2018-02-15T12:43:10.441Z,10.50
2018-02-15T12:44:10.382Z,10.50
2018-02-15T12:45:10.317Z,9.70
2018-02-15T12:46:10.258Z,9.70
2018-02-15T12:47:10.196Z,9.50
2018-02-15T12:48:10.168Z,9.50
2018-02-15T12:49:10.075Z,9.10
2018-02-15T12:50:10.012Z,8.40
2018-02-15T12:51:09.951Z,9.00
2018-02-15T12:52:09.889Z,9.40
2018-02-15T12:53:09.827Z,10.40
2018-02-15T12:54:09.767Z,9.30
2018-02-15T12:55:09.707Z,9.10
2018-02-15T12:56:09.665Z,9.00
2018-02-15T12:57:09.584Z,9.10
2018-02-15T12:58:09.524Z,9.00
2018-02-15T12:59:09.462Z,9.20
2018-02-15T13:00:09.401Z,9.70
2018-02-15T13:01:09.366Z,9.60